createdAt,value
2019-03-20T00:02:06.335Z,14.80
2019-03-20T00:04:36.675Z,13.70
2019-03-20T00:07:07.031Z,16.10
2019-03-20T00:09:37.438Z,15.40
2019-03-20T00:12:07.754Z,15.50
2019-03-20T00:14:38.165Z,15.47
2019-03-20T00:17:08.876Z,15.17
2019-03-20T00:19:40.363Z,15.30
2019-03-20T00:22:10.840Z,15.33
2019-03-20T00:24:41.169Z,15.30
2019-03-20T00:27:11.469Z,15.07
2019-03-20T00:29:41.815Z,15.70
2019-03-20T00:32:12.269Z,15.70
2019-03-20T00:34:42.982Z,15.13
2019-03-20T00:37:13.489Z,15.30
2019-03-20T00:39:43.818Z,14.83
2019-03-20T00:42:14.127Z,14.47
2019-03-20T00:44:44.473Z,14.73
2019-03-20T00:47:14.779Z,16.40
2019-03-20T00:49:45.117Z,16.30
2019-03-20T00:52:15.421Z,15.33
2019-03-20T00:54:45.781Z,15.80
2019-03-20T00:57:16.087Z,16.10
2019-03-20T00:59:46.437Z,16.30
2019-03-20T01:02:16.738Z,16.70
2019-03-20T01:04:47.066Z,16.47
2019-03-20T01:07:17.379Z,15.27
2019-03-20T01:09:47.798Z,15.57
2019-03-20T01:12:18.121Z,16.77
2019-03-20T01:14:48.458Z,15.53
2019-03-20T01:17:18.764Z,14.73
2019-03-20T01:19:49.088Z,14.23
2019-03-20T01:22:19.498Z,13.57
2019-03-20T01:24:50.114Z,13.63
2019-03-20T01:27:20.458Z,11.27
2019-03-20T01:29:50.788Z,11.37
2019-03-20T01:32:21.177Z,11.50
2019-03-20T01:34:51.572Z,11.87
2019-03-20T01:37:21.875Z,12.50
2019-03-20T01:39:52.202Z,12.13
2019-03-20T01:42:22.508Z,12.43
2019-03-20T01:44:52.834Z,11.93
2019-03-20T01:47:23.140Z,13.07
2019-03-20T01:49:53.469Z,12.97
2019-03-20T01:52:23.778Z,13.80
2019-03-20T01:54:54.126Z,13.60
2019-03-20T01:57:24.508Z,13.83
2019-03-20T01:59:54.830Z,13.67
2019-03-20T02:02:25.153Z,15.13
2019-03-20T02:05:07.678Z,15.88
2019-03-20T02:07:38.241Z,15.13
2019-03-20T02:10:09.815Z,15.43
2019-03-20T02:12:40.351Z,16.23
2019-03-20T02:15:13.017Z,16.07
2019-03-20T02:17:43.401Z,15.93
2019-03-20T02:20:15.394Z,14.20
2019-03-20T02:22:46.905Z,14.20
2019-03-20T02:25:17.685Z,15.70
2019-03-20T02:27:48.059Z,15.03
2019-03-20T02:30:18.940Z,16.37
2019-03-20T02:32:49.527Z,15.40
2019-03-20T02:35:19.886Z,15.80
2019-03-20T02:37:50.575Z,15.17
2019-03-20T02:40:21.106Z,14.40
2019-03-20T02:42:51.723Z,14.70
2019-03-20T02:45:22.186Z,15.33
2019-03-20T02:47:52.986Z,15.03
2019-03-20T02:50:23.304Z,15.80
2019-03-20T02:52:53.918Z,14.47
2019-03-20T02:55:24.339Z,14.67
2019-03-20T02:57:54.825Z,14.80
2019-03-20T03:00:25.139Z,14.93
2019-03-20T03:02:55.439Z,14.13
2019-03-20T03:05:25.791Z,14.33
2019-03-20T03:07:56.144Z,15.17
2019-03-20T03:10:26.552Z,14.40
2019-03-20T03:12:56.868Z,14.50
2019-03-20T03:15:27.224Z,14.63
2019-03-20T03:17:57.543Z,14.83
2019-03-20T03:20:27.883Z,14.60
2019-03-20T03:22:58.196Z,14.57
2019-03-20T03:25:28.513Z,14.83
2019-03-20T03:27:58.830Z,15.70
2019-03-20T03:30:29.140Z,16.33
2019-03-20T03:32:59.482Z,16.37
2019-03-20T03:35:29.801Z,16.10
2019-03-20T03:38:00.143Z,15.07
2019-03-20T03:40:30.466Z,16.07
2019-03-20T03:43:00.810Z,17.97
2019-03-20T03:45:31.131Z,18.30
2019-03-20T03:48:01.491Z,15.97
2019-03-20T03:50:31.822Z,15.00
2019-03-20T03:53:02.151Z,15.47
2019-03-20T03:55:32.484Z,16.03
2019-03-20T03:58:02.830Z,14.63
2019-03-20T04:00:33.152Z,15.70
2019-03-20T04:03:03.458Z,15.50
2019-03-20T04:05:33.782Z,17.37
2019-03-20T04:08:04.119Z,19.70
2019-03-20T04:10:34.415Z,15.77
2019-03-20T04:13:04.757Z,15.50
2019-03-20T04:15:38.730Z,12.97
2019-03-20T04:18:09.090Z,12.40
2019-03-20T04:20:40.562Z,16.93
2019-03-20T04:23:10.902Z,18.20
2019-03-20T04:25:41.238Z,18.03
2019-03-20T04:28:11.541Z,17.47
2019-03-20T04:30:41.843Z,19.00
2019-03-20T04:33:12.179Z,14.40
2019-03-20T04:35:42.482Z,13.47
2019-03-20T04:38:12.844Z,12.63
2019-03-20T04:40:43.283Z,13.03
2019-03-20T04:43:13.647Z,13.10
2019-03-20T04:45:44.099Z,12.50
2019-03-20T04:48:14.411Z,13.60
2019-03-20T04:50:44.744Z,13.10
2019-03-20T04:53:15.132Z,13.30
2019-03-20T04:55:45.468Z,12.80
2019-03-20T04:58:15.787Z,12.00
2019-03-20T05:00:46.209Z,13.68
2019-03-20T05:03:16.525Z,13.47
2019-03-20T05:05:46.918Z,14.07
2019-03-20T05:08:17.192Z,14.00
2019-03-20T05:10:47.533Z,14.90
2019-03-20T05:13:17.965Z,14.60
2019-03-20T05:15:48.352Z,16.57
2019-03-20T05:18:18.764Z,15.13
2019-03-20T05:20:49.359Z,16.53
2019-03-20T05:23:19.825Z,16.27
2019-03-20T05:25:50.605Z,15.53
2019-03-20T05:28:21.115Z,15.87
2019-03-20T05:30:51.695Z,16.07
2019-03-20T05:33:22.045Z,17.50
2019-03-20T05:35:52.599Z,18.30
2019-03-20T05:38:24.111Z,18.27
2019-03-20T05:40:54.606Z,18.57
2019-03-20T05:43:25.031Z,18.57
2019-03-20T05:45:55.583Z,26.67
2019-03-20T05:48:25.902Z,46.13
2019-03-20T05:50:56.426Z,38.10
2019-03-20T05:53:26.813Z,25.07
2019-03-20T05:55:57.179Z,20.47
2019-03-20T05:58:27.494Z,21.83
2019-03-20T06:00:57.838Z,21.07
2019-03-20T06:03:28.148Z,20.77
2019-03-20T06:05:58.487Z,19.47
2019-03-20T06:08:31.200Z,19.20
2019-03-20T06:11:00.744Z,19.73
2019-03-20T06:13:31.062Z,20.80
2019-03-20T06:16:01.412Z,22.70
2019-03-20T06:18:35.407Z,20.27
2019-03-20T06:21:05.753Z,20.43
2019-03-20T06:23:36.070Z,20.43
2019-03-20T06:26:06.369Z,19.73
2019-03-20T06:28:36.681Z,21.90
2019-03-20T06:31:06.985Z,17.00
2019-03-20T06:33:37.322Z,16.70
2019-03-20T06:36:07.641Z,17.37
2019-03-20T06:38:38.020Z,13.87
2019-03-20T06:41:08.322Z,13.00
2019-03-20T06:43:38.726Z,15.17
2019-03-20T06:46:09.030Z,15.07
2019-03-20T06:48:39.355Z,13.20
2019-03-20T06:51:09.681Z,12.63
2019-03-20T06:53:40.006Z,11.77
2019-03-20T06:56:10.293Z,12.00
2019-03-20T06:58:40.641Z,10.93
2019-03-20T07:01:16.527Z,14.37
2019-03-20T07:04:33.745Z,14.03
2019-03-20T07:07:43.640Z,13.07
2019-03-20T07:10:21.734Z,12.53
2019-03-20T07:12:52.083Z,12.70
2019-03-20T07:15:22.376Z,14.77
2019-03-20T07:17:52.731Z,14.23
2019-03-20T07:20:23.235Z,15.87
2019-03-20T07:22:53.534Z,16.13
2019-03-20T07:25:23.871Z,17.47
2019-03-20T07:27:54.204Z,18.73
2019-03-20T07:30:24.690Z,18.10
2019-03-20T07:32:55.017Z,17.70
2019-03-20T07:35:25.377Z,16.83
2019-03-20T07:37:56.496Z,17.00
2019-03-20T07:40:26.954Z,16.97
2019-03-20T07:43:07.858Z,15.70
2019-03-20T07:45:29.228Z,15.50
2019-03-20T07:47:59.577Z,14.63
2019-03-20T07:50:29.880Z,16.30
2019-03-20T07:53:00.251Z,15.70
2019-03-20T07:55:30.548Z,14.53
2019-03-20T07:58:00.894Z,15.10
2019-03-20T08:00:33.575Z,14.83
2019-03-20T08:03:03.912Z,13.32
2019-03-20T08:05:34.249Z,13.80
2019-03-20T08:08:07.573Z,13.63
2019-03-20T08:10:40.502Z,15.27
2019-03-20T08:13:10.928Z,15.10
2019-03-20T08:15:41.359Z,13.83
2019-03-20T08:18:11.894Z,13.67
2019-03-20T08:20:42.524Z,13.70
2019-03-20T08:23:12.892Z,12.27
2019-03-20T08:25:45.175Z,11.90
2019-03-20T08:28:16.406Z,12.23
2019-03-20T08:30:46.762Z,11.20
2019-03-20T08:33:17.167Z,10.70
2019-03-20T08:35:47.512Z,11.35
2019-03-20T08:38:19.173Z,10.70
2019-03-20T08:40:49.762Z,10.87
2019-03-20T08:43:21.804Z,10.80
2019-03-20T08:45:52.267Z,10.70
2019-03-20T08:48:22.715Z,11.00
2019-03-20T08:50:53.311Z,10.60
2019-03-20T08:53:23.783Z,9.43
2019-03-20T08:55:54.372Z,9.40
2019-03-20T08:58:24.838Z,9.23
2019-03-20T09:00:55.154Z,9.70
2019-03-20T09:03:25.499Z,8.97
2019-03-20T09:05:55.804Z,9.13
2019-03-20T09:08:29.706Z,9.30
2019-03-20T09:10:58.129Z,9.87
2019-03-20T09:13:28.417Z,9.60
2019-03-20T09:15:59.348Z,9.93
2019-03-20T09:18:29.630Z,9.40
2019-03-20T09:20:59.925Z,9.93
2019-03-20T09:23:30.802Z,9.50
2019-03-20T09:26:01.106Z,9.50
2019-03-20T09:28:31.426Z,9.10
2019-03-20T09:31:01.751Z,8.60
2019-03-20T09:33:32.167Z,8.33
2019-03-20T09:36:02.486Z,8.37
2019-03-20T09:38:43.007Z,8.37
2019-03-20T09:41:04.739Z,8.07
2019-03-20T09:43:35.136Z,7.77
2019-03-20T09:46:05.482Z,7.60
2019-03-20T09:48:35.867Z,7.37
2019-03-20T09:51:06.300Z,7.13
2019-03-20T09:53:38.405Z,7.77
2019-03-20T09:56:08.773Z,7.27
2019-03-20T09:58:39.089Z,7.27
2019-03-20T10:01:09.398Z,7.03
2019-03-20T10:03:39.746Z,7.07
2019-03-20T10:06:10.086Z,7.00
2019-03-20T10:08:40.575Z,7.00
2019-03-20T10:11:12.036Z,7.10
2019-03-20T10:13:42.388Z,6.63
2019-03-20T10:16:12.697Z,6.90
2019-03-20T10:18:43.095Z,6.57
2019-03-20T10:21:13.416Z,6.33
2019-03-20T10:23:43.722Z,5.53
2019-03-20T10:26:14.299Z,6.23
2019-03-20T10:28:44.654Z,6.20
2019-03-20T10:31:15.006Z,5.43
2019-03-20T10:33:45.371Z,6.07
2019-03-20T10:36:15.848Z,6.03
2019-03-20T10:38:48.633Z,5.50
2019-03-20T10:41:18.196Z,5.00
2019-03-20T10:43:48.550Z,4.70
2019-03-20T10:46:25.854Z,4.90
2019-03-20T10:48:56.552Z,4.53
2019-03-20T10:51:27.099Z,4.40
2019-03-20T10:53:57.427Z,3.90
2019-03-20T10:56:27.822Z,4.07
2019-03-20T10:58:58.162Z,4.03
2019-03-20T11:01:28.541Z,4.20
2019-03-20T11:03:58.980Z,3.73
2019-03-20T11:06:29.577Z,3.83
2019-03-20T11:09:00.029Z,3.50
2019-03-20T11:11:31.329Z,3.97
2019-03-20T11:14:01.678Z,3.40
2019-03-20T11:16:32.093Z,3.30
2019-03-20T11:19:03.433Z,4.07
2019-03-20T11:21:34.004Z,3.90
2019-03-20T11:24:04.573Z,3.93
2019-03-20T11:26:35.078Z,3.20
2019-03-20T11:29:05.616Z,3.60
2019-03-20T11:31:35.992Z,3.27
2019-03-20T11:34:06.349Z,3.30
2019-03-20T11:36:36.708Z,2.77
2019-03-20T11:39:10.109Z,3.40
2019-03-20T11:41:40.490Z,3.10
2019-03-20T11:44:11.177Z,3.17
2019-03-20T11:46:41.664Z,3.50
2019-03-20T11:49:13.167Z,3.10
2019-03-20T11:51:50.070Z,3.12
2019-03-20T11:54:26.575Z,2.90
2019-03-20T11:56:57.088Z,3.22
2019-03-20T11:59:28.526Z,3.27
2019-03-20T12:01:58.871Z,3.20
2019-03-20T12:04:31.772Z,2.90
2019-03-20T12:07:02.107Z,2.90
2019-03-20T12:09:40.678Z,3.40
2019-03-20T12:12:04.705Z,3.40
2019-03-20T12:14:35.097Z,3.13
2019-03-20T12:17:05.512Z,2.80
2019-03-20T12:19:44.654Z,3.33
2019-03-20T12:22:07.892Z,3.20
2019-03-20T12:24:38.301Z,3.07
2019-03-20T12:27:15.191Z,2.77
2019-03-20T12:29:40.670Z,2.90
2019-03-20T12:32:11.027Z,4.80
2019-03-20T12:34:41.457Z,3.30
2019-03-20T12:37:11.817Z,3.23
2019-03-20T12:39:52.878Z,3.20
2019-03-20T12:42:15.739Z,3.20
2019-03-20T12:44:46.761Z,3.20
2019-03-20T12:47:17.154Z,3.03
2019-03-20T12:49:47.523Z,3.10
2019-03-20T12:52:17.870Z,3.20
2019-03-20T12:54:48.241Z,2.93
2019-03-20T12:57:18.595Z,2.87
2019-03-20T12:59:49.094Z,3.40
2019-03-20T13:02:19.429Z,2.80
2019-03-20T13:04:49.801Z,3.10
2019-03-20T13:07:20.158Z,3.30
2019-03-20T13:09:50.568Z,2.83
2019-03-20T13:12:20.937Z,3.05
2019-03-20T13:14:51.327Z,3.20
2019-03-20T13:17:21.699Z,3.33
2019-03-20T13:19:52.111Z,2.62
2019-03-20T13:22:22.534Z,3.37
2019-03-20T13:24:52.873Z,3.00
2019-03-20T13:27:23.304Z,2.72
2019-03-20T13:29:53.855Z,2.90
2019-03-20T13:32:25.486Z,2.85
2019-03-20T13:34:55.897Z,2.70
2019-03-20T13:37:26.282Z,3.22
2019-03-20T13:39:57.752Z,2.90
2019-03-20T13:42:28.136Z,2.83
2019-03-20T13:44:58.578Z,2.87
2019-03-20T13:47:28.981Z,2.83
2019-03-20T13:49:59.414Z,2.70
2019-03-20T13:52:29.805Z,2.92
2019-03-20T13:55:00.320Z,3.05
2019-03-20T13:57:30.622Z,2.72
2019-03-20T14:00:01.050Z,2.80
2019-03-20T14:02:31.573Z,2.90
2019-03-20T14:05:04.568Z,3.20
2019-03-20T14:07:36.599Z,2.90
2019-03-20T14:10:07.416Z,2.70
2019-03-20T14:12:38.102Z,2.70
2019-03-20T14:15:09.592Z,3.05
2019-03-20T14:17:41.693Z,2.80
2019-03-20T14:20:14.522Z,2.60
2019-03-20T14:22:45.036Z,2.77
2019-03-20T14:25:15.434Z,2.83
2019-03-20T14:27:45.871Z,2.60
2019-03-20T14:30:22.020Z,2.40
2019-03-20T14:32:53.060Z,2.90
2019-03-20T14:35:24.417Z,2.90
2019-03-20T14:37:54.976Z,2.67
2019-03-20T14:40:35.280Z,3.12
2019-03-20T14:42:58.953Z,2.90
2019-03-20T14:45:29.596Z,2.80
2019-03-20T14:48:00.053Z,2.60
2019-03-20T14:50:30.586Z,3.05
2019-03-20T14:53:01.371Z,3.00
2019-03-20T14:55:32.007Z,2.70
2019-03-20T14:58:02.451Z,2.67
2019-03-20T15:00:35.148Z,2.50
2019-03-20T15:03:05.607Z,3.13
2019-03-20T15:05:35.986Z,2.80
2019-03-20T15:08:19.841Z,2.95
2019-03-20T15:10:50.277Z,3.00
2019-03-20T15:13:29.877Z,2.90
2019-03-20T15:16:03.629Z,3.00
2019-03-20T15:18:34.005Z,2.80
2019-03-20T15:21:07.487Z,3.30
2019-03-20T15:23:40.771Z,2.80
2019-03-20T15:26:13.629Z,2.67
2019-03-20T15:28:46.184Z,2.90
2019-03-20T15:31:19.215Z,2.80
2019-03-20T15:33:55.625Z,2.70
2019-03-20T15:36:28.105Z,3.30
2019-03-20T15:39:00.431Z,3.50
2019-03-20T15:41:35.587Z,2.97
2019-03-20T15:44:09.191Z,3.10
2019-03-20T15:46:43.078Z,2.80
2019-03-20T15:49:18.125Z,2.67
2019-03-20T15:51:51.977Z,2.93
2019-03-20T15:54:24.376Z,2.77
2019-03-20T15:56:57.245Z,3.23
2019-03-20T15:59:35.591Z,2.73
2019-03-20T16:02:10.508Z,2.70
2019-03-20T16:04:42.731Z,3.13
2019-03-20T16:07:16.168Z,3.00
2019-03-20T16:09:50.854Z,3.10
2019-03-20T16:12:24.250Z,3.90
2019-03-20T16:14:57.416Z,5.23
2019-03-20T16:17:30.020Z,5.43
2019-03-20T16:20:02.679Z,2.97
2019-03-20T16:22:35.562Z,3.03
2019-03-20T16:25:08.400Z,2.80
2019-03-20T16:27:40.967Z,4.10
2019-03-20T16:30:18.718Z,2.80
2019-03-20T16:32:51.448Z,2.77
2019-03-20T16:35:22.108Z,3.13
2019-03-20T16:37:53.094Z,3.17
2019-03-20T16:40:24.366Z,4.57
2019-03-20T16:42:56.408Z,4.43
2019-03-20T16:45:28.301Z,4.60
2019-03-20T16:47:58.818Z,3.97
2019-03-20T16:50:29.175Z,3.67
2019-03-20T16:52:59.602Z,3.40
2019-03-20T16:55:30.080Z,4.63
2019-03-20T16:58:00.475Z,5.63
2019-03-20T17:00:31.490Z,3.57
2019-03-20T17:03:02.092Z,4.70
2019-03-20T17:05:32.481Z,3.30
2019-03-20T17:08:03.120Z,3.20
2019-03-20T17:10:35.634Z,3.57
2019-03-20T17:13:06.426Z,4.30
2019-03-20T17:15:36.848Z,4.17
2019-03-20T17:18:07.513Z,3.60
2019-03-20T17:20:37.968Z,3.60
2019-03-20T17:23:08.379Z,3.70
2019-03-20T17:25:38.854Z,3.90
2019-03-20T17:28:09.343Z,3.83
2019-03-20T17:30:40.762Z,3.47
2019-03-20T17:33:11.187Z,3.67
2019-03-20T17:35:41.785Z,3.50
2019-03-20T17:38:12.183Z,4.83
2019-03-20T17:40:42.604Z,3.57
2019-03-20T17:43:13.150Z,4.53
2019-03-20T17:45:43.632Z,3.57
2019-03-20T17:48:14.031Z,4.70
2019-03-20T17:50:44.429Z,4.53
2019-03-20T17:53:14.979Z,3.97
2019-03-20T17:55:45.310Z,3.70
2019-03-20T17:58:15.793Z,3.70
2019-03-20T18:00:47.685Z,3.50
2019-03-20T18:03:18.054Z,3.80
2019-03-20T18:05:48.407Z,4.67
2019-03-20T18:08:19.217Z,27.53
2019-03-20T18:10:49.625Z,10.47
2019-03-20T18:13:20.134Z,8.87
2019-03-20T18:15:50.533Z,16.97
2019-03-20T18:18:20.897Z,14.53
2019-03-20T18:20:51.253Z,10.27
2019-03-20T18:23:21.608Z,12.03
2019-03-20T18:25:51.962Z,8.27
2019-03-20T18:28:22.429Z,14.80
2019-03-20T18:30:53.458Z,10.10
2019-03-20T18:33:23.872Z,11.93
2019-03-20T18:35:54.281Z,9.83
2019-03-20T18:38:24.662Z,6.17
2019-03-20T18:40:55.162Z,4.73
2019-03-20T18:43:25.491Z,4.23
2019-03-20T18:45:55.868Z,5.30
2019-03-20T18:48:26.219Z,6.07
2019-03-20T18:50:56.527Z,7.10
2019-03-20T18:53:26.949Z,6.83
2019-03-20T18:55:57.257Z,6.30
2019-03-20T18:58:27.585Z,6.30
2019-03-20T19:00:57.886Z,5.97
2019-03-20T19:03:28.383Z,6.30
2019-03-20T19:06:02.131Z,7.93
2019-03-20T19:08:32.518Z,7.60
2019-03-20T19:11:02.841Z,7.50
2019-03-20T19:13:33.184Z,6.23
2019-03-20T19:16:03.485Z,6.00
2019-03-20T19:18:34.605Z,5.90
2019-03-20T19:21:04.994Z,6.20
2019-03-20T19:23:35.319Z,5.80
2019-03-20T19:26:05.762Z,6.50
2019-03-20T19:28:36.087Z,8.23
2019-03-20T19:31:06.400Z,8.83
2019-03-20T19:33:36.902Z,8.13
2019-03-20T19:36:07.205Z,6.57
2019-03-20T19:38:37.598Z,6.30
2019-03-20T19:41:08.935Z,6.67
2019-03-20T19:43:39.326Z,8.03
2019-03-20T19:46:09.633Z,7.60
2019-03-20T19:48:39.978Z,8.37
2019-03-20T19:51:10.295Z,7.20
2019-03-20T19:53:40.654Z,6.67
2019-03-20T19:56:11.182Z,5.70
2019-03-20T19:58:41.558Z,7.43
2019-03-20T20:01:11.950Z,6.30
2019-03-20T20:03:42.418Z,5.97
2019-03-20T20:06:13.237Z,5.70
2019-03-20T20:08:43.564Z,6.00
2019-03-20T20:11:13.992Z,6.60
2019-03-20T20:13:44.415Z,6.87
2019-03-20T20:16:17.579Z,6.77
2019-03-20T20:18:49.101Z,6.53
2019-03-20T20:21:19.601Z,6.45
2019-03-20T20:23:50.072Z,7.20
2019-03-20T20:26:22.125Z,6.40
2019-03-20T20:28:52.533Z,9.80
2019-03-20T20:31:22.945Z,7.67
2019-03-20T20:33:53.466Z,7.30
2019-03-20T20:36:23.775Z,7.83
2019-03-20T20:38:54.456Z,7.87
2019-03-20T20:41:39.383Z,7.93
2019-03-20T20:44:09.770Z,8.53
2019-03-20T20:46:40.922Z,9.03
2019-03-20T20:49:11.434Z,8.33
2019-03-20T20:51:41.957Z,8.15
2019-03-20T20:54:12.665Z,8.37
2019-03-20T20:56:43.168Z,11.27
2019-03-20T20:59:14.160Z,11.70
2019-03-20T21:01:44.815Z,11.50
2019-03-20T21:04:15.262Z,11.00
2019-03-20T21:06:45.597Z,9.67
2019-03-20T21:09:15.979Z,9.00
2019-03-20T21:11:46.326Z,8.90
2019-03-20T21:14:16.629Z,8.87
2019-03-20T21:16:47.606Z,8.40
2019-03-20T21:19:36.653Z,9.00
2019-03-20T21:22:46.201Z,9.77
2019-03-20T21:25:18.547Z,12.10
2019-03-20T21:28:28.594Z,12.20
2019-03-20T21:31:22.669Z,18.27
2019-03-20T21:34:33.935Z,20.07
2019-03-20T21:37:46.260Z,20.83
2019-03-20T21:40:18.875Z,20.93
2019-03-20T21:43:42.607Z,29.17
2019-03-20T21:46:58.488Z,13.23
2019-03-20T21:49:29.400Z,6.03
2019-03-20T21:52:00.240Z,8.20
2019-03-20T21:55:07.573Z,10.23
2019-03-20T21:58:10.909Z,32.70
2019-03-20T22:01:27.688Z,30.13
2019-03-20T22:03:58.574Z,17.20
2019-03-20T22:07:21.611Z,15.13
2019-03-20T22:10:41.894Z,12.80
2019-03-20T22:13:28.517Z,11.63
2019-03-20T22:16:18.829Z,11.57
2019-03-20T22:19:38.330Z,10.67
2019-03-20T22:22:35.873Z,9.70
2019-03-20T22:25:43.035Z,10.40
2019-03-20T22:28:44.718Z,13.00
2019-03-20T22:31:15.605Z,10.03
2019-03-20T22:34:22.141Z,12.73
2019-03-20T22:36:53.034Z,12.10
2019-03-20T22:40:07.645Z,11.80
2019-03-20T22:42:48.891Z,11.07
2019-03-20T22:45:53.631Z,9.00
2019-03-20T22:49:05.002Z,7.90
2019-03-20T22:52:12.477Z,7.73
2019-03-20T22:55:18.904Z,8.47
2019-03-20T22:58:27.973Z,8.40
2019-03-20T23:00:58.896Z,7.77
2019-03-20T23:03:38.967Z,8.40
2019-03-20T23:06:09.857Z,9.37
2019-03-20T23:08:40.830Z,10.40
2019-03-20T23:11:11.832Z,11.10
2019-03-20T23:13:42.718Z,14.77
2019-03-20T23:16:15.022Z,14.77
2019-03-20T23:18:47.105Z,12.20
2019-03-20T23:21:18.076Z,10.63
2019-03-20T23:23:49.480Z,10.60
2019-03-20T23:26:20.381Z,13.43
2019-03-20T23:28:51.653Z,9.77
2019-03-20T23:31:22.615Z,9.33
2019-03-20T23:33:53.721Z,11.10
2019-03-20T23:36:25.015Z,10.73
2019-03-20T23:38:55.885Z,12.10
2019-03-20T23:41:26.954Z,13.70
2019-03-20T23:43:57.892Z,19.23
2019-03-20T23:46:29.000Z,17.50
2019-03-20T23:49:09.714Z,17.83
2019-03-20T23:51:40.662Z,18.50
2019-03-20T23:54:12.524Z,15.87
2019-03-20T23:56:43.631Z,15.97
2019-03-20T23:59:14.913Z,13.98
